sensor_id;sensor_type;location;lat;lon;timestamp;P1;durP1;ratioP1;P2;durP2;ratioP2
7525;SDS011;3804;50.860;6.208;2023-06-14T00:02:25;9.00;;;5.50;;
7525;SDS011;3804;50.860;6.208;2023-06-14T00:04:52;9.43;;;5.60;;
7525;SDS011;3804;50.860;6.208;2023-06-14T00:07:20;5.80;;;5.30;;
7525;SDS011;3804;50.860;6.208;2023-06-14T00:09:50;8.43;;;5.93;;
7525;SDS011;3804;50.860;6.208;2023-06-14T00:12:17;8.80;;;5.20;;
7525;SDS011;3804;50.860;6.208;2023-06-14T00:14:44;7.23;;;5.97;;
7525;SDS011;3804;50.860;6.208;2023-06-14T00:17:13;6.17;;;5.20;;
7525;SDS011;3804;50.860;6.208;2023-06-14T00:19:43;7.57;;;5.50;;
7525;SDS011;3804;50.860;6.208;2023-06-14T00:22:10;7.07;;;5.60;;
7525;SDS011;3804;50.860;6.208;2023-06-14T00:24:37;10.47;;;5.97;;
7525;SDS011;3804;50.860;6.208;2023-06-14T00:27:04;11.33;;;5.70;;
7525;SDS011;3804;50.860;6.208;2023-06-14T00:29:31;8.13;;;5.33;;
7525;SDS011;3804;50.860;6.208;2023-06-14T00:31:58;9.17;;;5.97;;
7525;SDS011;3804;50.860;6.208;2023-06-14T00:34:25;10.17;;;6.43;;
7525;SDS011;3804;50.860;6.208;2023-06-14T00:36:52;9.50;;;5.97;;
7525;SDS011;3804;50.860;6.208;2023-06-14T00:39:19;10.80;;;5.63;;
7525;SDS011;3804;50.860;6.208;2023-06-14T00:41:46;7.57;;;5.80;;
7525;SDS011;3804;50.860;6.208;2023-06-14T00:44:14;11.77;;;6.10;;
7525;SDS011;3804;50.860;6.208;2023-06-14T00:46:42;7.23;;;6.00;;
7525;SDS011;3804;50.860;6.208;2023-06-14T00:49:10;8.00;;;5.87;;
7525;SDS011;3804;50.860;6.208;2023-06-14T00:51:39;6.67;;;5.57;;
7525;SDS011;3804;50.860;6.208;2023-06-14T00:54:06;6.57;;;5.60;;
7525;SDS011;3804;50.860;6.208;2023-06-14T00:56:32;7.57;;;5.50;;
7525;SDS011;3804;50.860;6.208;2023-06-14T00:59:00;8.73;;;5.87;;
7525;SDS011;3804;50.860;6.208;2023-06-14T01:01:27;9.07;;;6.03;;
7525;SDS011;3804;50.860;6.208;2023-06-14T01:03:55;7.63;;;5.73;;
7525;SDS011;3804;50.860;6.208;2023-06-14T01:07:11;7.33;;;5.40;;
7525;SDS011;3804;50.860;6.208;2023-06-14T01:12:07;7.67;;;5.93;;
7525;SDS011;3804;50.860;6.208;2023-06-14T01:14:38;8.17;;;6.03;;
7525;SDS011;3804;50.860;6.208;2023-06-14T01:17:05;8.77;;;6.20;;
7525;SDS011;3804;50.860;6.208;2023-06-14T01:19:36;8.50;;;5.83;;
7525;SDS011;3804;50.860;6.208;2023-06-14T01:22:14;6.70;;;6.10;;
7525;SDS011;3804;50.860;6.208;2023-06-14T01:24:40;10.73;;;6.30;;
7525;SDS011;3804;50.860;6.208;2023-06-14T01:27:11;8.07;;;6.17;;
7525;SDS011;3804;50.860;6.208;2023-06-14T01:29:40;9.63;;;6.20;;
7525;SDS011;3804;50.860;6.208;2023-06-14T01:32:17;6.43;;;5.83;;
7525;SDS011;3804;50.860;6.208;2023-06-14T01:34:45;9.23;;;6.37;;
7525;SDS011;3804;50.860;6.208;2023-06-14T01:37:12;7.30;;;6.43;;
7525;SDS011;3804;50.860;6.208;2023-06-14T01:39:39;7.53;;;6.40;;
7525;SDS011;3804;50.860;6.208;2023-06-14T01:42:07;7.97;;;6.73;;
7525;SDS011;3804;50.860;6.208;2023-06-14T01:44:33;7.23;;;6.53;;
7525;SDS011;3804;50.860;6.208;2023-06-14T01:47:00;8.67;;;6.83;;
7525;SDS011;3804;50.860;6.208;2023-06-14T01:49:28;8.07;;;6.30;;
7525;SDS011;3804;50.860;6.208;2023-06-14T01:51:54;10.57;;;6.43;;
7525;SDS011;3804;50.860;6.208;2023-06-14T01:54:21;8.27;;;6.63;;
7525;SDS011;3804;50.860;6.208;2023-06-14T01:56:50;7.20;;;6.50;;
7525;SDS011;3804;50.860;6.208;2023-06-14T01:59:17;7.37;;;6.63;;
7525;SDS011;3804;50.860;6.208;2023-06-14T02:01:44;7.60;;;6.80;;
7525;SDS011;3804;50.860;6.208;2023-06-14T02:04:12;8.43;;;6.70;;
7525;SDS011;3804;50.860;6.208;2023-06-14T02:06:39;10.13;;;7.23;;
7525;SDS011;3804;50.860;6.208;2023-06-14T02:09:06;10.70;;;6.83;;
7525;SDS011;3804;50.860;6.208;2023-06-14T02:11:33;6.93;;;6.23;;
7525;SDS011;3804;50.860;6.208;2023-06-14T02:14:00;7.47;;;6.73;;
7525;SDS011;3804;50.860;6.208;2023-06-14T02:16:28;9.67;;;6.90;;
7525;SDS011;3804;50.860;6.208;2023-06-14T02:18:56;9.07;;;6.90;;
7525;SDS011;3804;50.860;6.208;2023-06-14T02:21:23;7.30;;;6.60;;
7525;SDS011;3804;50.860;6.208;2023-06-14T02:23:50;7.87;;;7.00;;
7525;SDS011;3804;50.860;6.208;2023-06-14T02:26:17;9.93;;;7.30;;
7525;SDS011;3804;50.860;6.208;2023-06-14T02:28:44;11.37;;;7.03;;
7525;SDS011;3804;50.860;6.208;2023-06-14T02:31:11;10.00;;;6.90;;
7525;SDS011;3804;50.860;6.208;2023-06-14T02:33:38;7.87;;;7.07;;
7525;SDS011;3804;50.860;6.208;2023-06-14T02:36:05;8.93;;;7.50;;
7525;SDS011;3804;50.860;6.208;2023-06-14T02:38:34;9.47;;;7.43;;
7525;SDS011;3804;50.860;6.208;2023-06-14T02:41:00;8.67;;;7.80;;
7525;SDS011;3804;50.860;6.208;2023-06-14T02:43:29;10.23;;;7.57;;
7525;SDS011;3804;50.860;6.208;2023-06-14T02:45:58;8.43;;;7.57;;
7525;SDS011;3804;50.860;6.208;2023-06-14T02:48:25;9.17;;;7.73;;
7525;SDS011;3804;50.860;6.208;2023-06-14T02:50:52;8.93;;;7.77;;
7525;SDS011;3804;50.860;6.208;2023-06-14T02:53:19;8.80;;;7.43;;
7525;SDS011;3804;50.860;6.208;2023-06-14T02:55:46;7.80;;;7.00;;
7525;SDS011;3804;50.860;6.208;2023-06-14T02:58:14;8.37;;;7.50;;
7525;SDS011;3804;50.860;6.208;2023-06-14T03:00:41;9.73;;;7.80;;
7525;SDS011;3804;50.860;6.208;2023-06-14T03:03:09;10.93;;;7.77;;
7525;SDS011;3804;50.860;6.208;2023-06-14T03:05:44;9.90;;;7.80;;
7525;SDS011;3804;50.860;6.208;2023-06-14T03:08:19;10.67;;;8.03;;
7525;SDS011;3804;50.860;6.208;2023-06-14T03:10:50;8.53;;;6.90;;
7525;SDS011;3804;50.860;6.208;2023-06-14T03:13:17;10.30;;;8.00;;
7525;SDS011;3804;50.860;6.208;2023-06-14T03:15:48;10.13;;;8.23;;
7525;SDS011;3804;50.860;6.208;2023-06-14T03:18:20;9.70;;;8.23;;
7525;SDS011;3804;50.860;6.208;2023-06-14T03:20:53;9.07;;;7.83;;
7525;SDS011;3804;50.860;6.208;2023-06-14T03:23:20;11.63;;;8.37;;
7525;SDS011;3804;50.860;6.208;2023-06-14T03:25:48;8.77;;;7.93;;
7525;SDS011;3804;50.860;6.208;2023-06-14T03:28:16;9.53;;;8.57;;
7525;SDS011;3804;50.860;6.208;2023-06-14T03:30:43;9.80;;;8.80;;
7525;SDS011;3804;50.860;6.208;2023-06-14T03:33:10;10.53;;;8.83;;
7525;SDS011;3804;50.860;6.208;2023-06-14T03:35:39;9.03;;;8.00;;
7525;SDS011;3804;50.860;6.208;2023-06-14T03:38:08;9.43;;;8.43;;
7525;SDS011;3804;50.860;6.208;2023-06-14T03:40:35;9.77;;;7.90;;
7525;SDS011;3804;50.860;6.208;2023-06-14T03:43:03;9.57;;;8.53;;
7525;SDS011;3804;50.860;6.208;2023-06-14T03:45:30;9.10;;;8.20;;
7525;SDS011;3804;50.860;6.208;2023-06-14T03:47:58;11.50;;;8.00;;
7525;SDS011;3804;50.860;6.208;2023-06-14T03:50:29;11.97;;;8.80;;
7525;SDS011;3804;50.860;6.208;2023-06-14T03:52:56;9.43;;;8.40;;
7525;SDS011;3804;50.860;6.208;2023-06-14T03:55:23;12.23;;;8.43;;
7525;SDS011;3804;50.860;6.208;2023-06-14T03:57:54;10.23;;;8.27;;
7525;SDS011;3804;50.860;6.208;2023-06-14T04:00:21;9.80;;;8.43;;
7525;SDS011;3804;50.860;6.208;2023-06-14T04:02:48;9.33;;;8.20;;
7525;SDS011;3804;50.860;6.208;2023-06-14T04:05:18;9.90;;;8.50;;
7525;SDS011;3804;50.860;6.208;2023-06-14T04:07:49;9.80;;;8.17;;
7525;SDS011;3804;50.860;6.208;2023-06-14T04:10:17;12.67;;;7.80;;
7525;SDS011;3804;50.860;6.208;2023-06-14T04:12:44;10.97;;;7.83;;
7525;SDS011;3804;50.860;6.208;2023-06-14T04:15:11;11.97;;;8.20;;
7525;SDS011;3804;50.860;6.208;2023-06-14T04:17:47;12.67;;;7.93;;
7525;SDS011;3804;50.860;6.208;2023-06-14T04:20:15;8.13;;;7.30;;
7525;SDS011;3804;50.860;6.208;2023-06-14T04:22:44;11.90;;;7.57;;
7525;SDS011;3804;50.860;6.208;2023-06-14T04:25:11;12.73;;;7.87;;
7525;SDS011;3804;50.860;6.208;2023-06-14T04:27:40;10.30;;;7.13;;
7525;SDS011;3804;50.860;6.208;2023-06-14T04:30:10;12.57;;;7.57;;
7525;SDS011;3804;50.860;6.208;2023-06-14T04:32:44;11.77;;;7.50;;
7525;SDS011;3804;50.860;6.208;2023-06-14T04:35:13;14.67;;;8.10;;
7525;SDS011;3804;50.860;6.208;2023-06-14T04:37:42;11.23;;;7.00;;
7525;SDS011;3804;50.860;6.208;2023-06-14T04:40:11;10.67;;;7.13;;
7525;SDS011;3804;50.860;6.208;2023-06-14T04:42:39;9.10;;;6.97;;
7525;SDS011;3804;50.860;6.208;2023-06-14T04:45:09;12.97;;;7.10;;
7525;SDS011;3804;50.860;6.208;2023-06-14T04:47:39;12.73;;;7.07;;
7525;SDS011;3804;50.860;6.208;2023-06-14T04:50:07;10.37;;;7.50;;
7525;SDS011;3804;50.860;6.208;2023-06-14T04:52:34;11.43;;;6.67;;
7525;SDS011;3804;50.860;6.208;2023-06-14T04:55:03;14.33;;;7.87;;
7525;SDS011;3804;50.860;6.208;2023-06-14T04:57:31;8.33;;;7.13;;
7525;SDS011;3804;50.860;6.208;2023-06-14T04:59:59;10.97;;;7.73;;
7525;SDS011;3804;50.860;6.208;2023-06-14T05:02:31;7.67;;;6.57;;
7525;SDS011;3804;50.860;6.208;2023-06-14T05:04:59;7.43;;;6.53;;
7525;SDS011;3804;50.860;6.208;2023-06-14T05:07:30;8.30;;;6.67;;
7525;SDS011;3804;50.860;6.208;2023-06-14T05:09:57;9.13;;;6.30;;
7525;SDS011;3804;50.860;6.208;2023-06-14T05:12:25;10.20;;;5.97;;
7525;SDS011;3804;50.860;6.208;2023-06-14T05:14:52;9.00;;;6.77;;
7525;SDS011;3804;50.860;6.208;2023-06-14T05:17:21;9.87;;;6.00;;
7525;SDS011;3804;50.860;6.208;2023-06-14T05:19:47;10.60;;;6.07;;
7525;SDS011;3804;50.860;6.208;2023-06-14T05:22:14;6.70;;;5.83;;
7525;SDS011;3804;50.860;6.208;2023-06-14T05:24:41;8.13;;;5.50;;
7525;SDS011;3804;50.860;6.208;2023-06-14T05:27:08;7.40;;;5.27;;
7525;SDS011;3804;50.860;6.208;2023-06-14T05:29:35;9.30;;;5.63;;
7525;SDS011;3804;50.860;6.208;2023-06-14T05:32:02;8.77;;;5.37;;
7525;SDS011;3804;50.860;6.208;2023-06-14T05:34:30;6.57;;;5.47;;
7525;SDS011;3804;50.860;6.208;2023-06-14T05:36:56;8.87;;;5.00;;
7525;SDS011;3804;50.860;6.208;2023-06-14T05:39:23;7.83;;;5.77;;
7525;SDS011;3804;50.860;6.208;2023-06-14T05:41:50;8.63;;;4.90;;
7525;SDS011;3804;50.860;6.208;2023-06-14T05:44:17;8.27;;;5.67;;
7525;SDS011;3804;50.860;6.208;2023-06-14T05:46:44;10.00;;;5.40;;
7525;SDS011;3804;50.860;6.208;2023-06-14T05:49:11;7.23;;;5.53;;
7525;SDS011;3804;50.860;6.208;2023-06-14T05:51:38;7.80;;;4.73;;
7525;SDS011;3804;50.860;6.208;2023-06-14T05:54:05;10.40;;;4.90;;
7525;SDS011;3804;50.860;6.208;2023-06-14T05:56:32;10.37;;;5.23;;
7525;SDS011;3804;50.860;6.208;2023-06-14T05:58:59;8.37;;;4.90;;
7525;SDS011;3804;50.860;6.208;2023-06-14T06:01:25;11.20;;;5.10;;
7525;SDS011;3804;50.860;6.208;2023-06-14T06:03:53;9.10;;;5.20;;
7525;SDS011;3804;50.860;6.208;2023-06-14T06:06:20;10.17;;;5.70;;
7525;SDS011;3804;50.860;6.208;2023-06-14T06:08:46;13.03;;;5.70;;
7525;SDS011;3804;50.860;6.208;2023-06-14T06:11:14;11.63;;;5.43;;
7525;SDS011;3804;50.860;6.208;2023-06-14T06:13:41;17.33;;;5.70;;
7525;SDS011;3804;50.860;6.208;2023-06-14T06:16:08;14.93;;;5.87;;
7525;SDS011;3804;50.860;6.208;2023-06-14T06:18:35;14.40;;;6.73;;
7525;SDS011;3804;50.860;6.208;2023-06-14T06:21:03;14.90;;;5.90;;
7525;SDS011;3804;50.860;6.208;2023-06-14T06:23:30;18.60;;;5.83;;
7525;SDS011;3804;50.860;6.208;2023-06-14T06:25:57;11.17;;;5.53;;
7525;SDS011;3804;50.860;6.208;2023-06-14T06:28:24;19.63;;;6.17;;
7525;SDS011;3804;50.860;6.208;2023-06-14T06:30:51;11.20;;;5.33;;
7525;SDS011;3804;50.860;6.208;2023-06-14T06:33:20;11.50;;;5.30;;
7525;SDS011;3804;50.860;6.208;2023-06-14T06:35:47;17.30;;;6.20;;
7525;SDS011;3804;50.860;6.208;2023-06-14T06:38:13;15.00;;;5.40;;
7525;SDS011;3804;50.860;6.208;2023-06-14T06:40:40;9.50;;;5.07;;
7525;SDS011;3804;50.860;6.208;2023-06-14T06:43:07;9.07;;;4.53;;
7525;SDS011;3804;50.860;6.208;2023-06-14T06:45:41;6.30;;;4.47;;
7525;SDS011;3804;50.860;6.208;2023-06-14T06:48:08;7.00;;;3.87;;
7525;SDS011;3804;50.860;6.208;2023-06-14T06:50:37;8.23;;;4.70;;
7525;SDS011;3804;50.860;6.208;2023-06-14T06:53:04;9.97;;;4.43;;
7525;SDS011;3804;50.860;6.208;2023-06-14T06:55:31;10.77;;;4.90;;
7525;SDS011;3804;50.860;6.208;2023-06-14T06:57:58;5.87;;;4.33;;
7525;SDS011;3804;50.860;6.208;2023-06-14T07:00:26;10.23;;;4.57;;
7525;SDS011;3804;50.860;6.208;2023-06-14T07:02:54;7.27;;;4.37;;
7525;SDS011;3804;50.860;6.208;2023-06-14T07:05:22;7.73;;;4.43;;
7525;SDS011;3804;50.860;6.208;2023-06-14T07:07:49;6.97;;;3.87;;
7525;SDS011;3804;50.860;6.208;2023-06-14T07:10:15;7.57;;;4.57;;
7525;SDS011;3804;50.860;6.208;2023-06-14T07:12:43;9.30;;;4.50;;
7525;SDS011;3804;50.860;6.208;2023-06-14T07:15:10;9.17;;;3.93;;
7525;SDS011;3804;50.860;6.208;2023-06-14T07:17:37;9.27;;;4.33;;
7525;SDS011;3804;50.860;6.208;2023-06-14T07:20:04;9.67;;;4.50;;
7525;SDS011;3804;50.860;6.208;2023-06-14T07:22:34;10.80;;;4.13;;
7525;SDS011;3804;50.860;6.208;2023-06-14T07:25:02;10.20;;;4.30;;
7525;SDS011;3804;50.860;6.208;2023-06-14T07:27:29;4.67;;;3.57;;
7525;SDS011;3804;50.860;6.208;2023-06-14T07:29:56;5.53;;;4.00;;
7525;SDS011;3804;50.860;6.208;2023-06-14T07:32:23;5.67;;;3.43;;
7525;SDS011;3804;50.860;6.208;2023-06-14T07:34:50;9.73;;;3.77;;
7525;SDS011;3804;50.860;6.208;2023-06-14T07:37:17;5.20;;;3.40;;
7525;SDS011;3804;50.860;6.208;2023-06-14T07:39:44;6.80;;;3.80;;
7525;SDS011;3804;50.860;6.208;2023-06-14T07:42:11;8.03;;;3.70;;
7525;SDS011;3804;50.860;6.208;2023-06-14T07:44:38;7.27;;;3.37;;
7525;SDS011;3804;50.860;6.208;2023-06-14T07:47:05;9.37;;;3.60;;
7525;SDS011;3804;50.860;6.208;2023-06-14T07:49:32;3.83;;;3.17;;
7525;SDS011;3804;50.860;6.208;2023-06-14T07:51:59;4.53;;;3.70;;
7525;SDS011;3804;50.860;6.208;2023-06-14T07:54:26;7.07;;;3.43;;
7525;SDS011;3804;50.860;6.208;2023-06-14T07:56:56;4.87;;;3.60;;
7525;SDS011;3804;50.860;6.208;2023-06-14T07:59:23;4.83;;;2.70;;
7525;SDS011;3804;50.860;6.208;2023-06-14T08:01:50;5.13;;;3.00;;
7525;SDS011;3804;50.860;6.208;2023-06-14T08:04:17;9.57;;;2.93;;
7525;SDS011;3804;50.860;6.208;2023-06-14T08:06:44;4.27;;;3.03;;
7525;SDS011;3804;50.860;6.208;2023-06-14T08:09:12;4.03;;;2.77;;
7525;SDS011;3804;50.860;6.208;2023-06-14T08:11:39;4.57;;;3.10;;
7525;SDS011;3804;50.860;6.208;2023-06-14T08:14:06;7.47;;;3.00;;
7525;SDS011;3804;50.860;6.208;2023-06-14T08:16:33;4.13;;;2.60;;
7525;SDS011;3804;50.860;6.208;2023-06-14T08:19:00;5.53;;;2.40;;
7525;SDS011;3804;50.860;6.208;2023-06-14T08:21:27;5.63;;;2.50;;
7525;SDS011;3804;50.860;6.208;2023-06-14T08:23:57;3.87;;;2.53;;
7525;SDS011;3804;50.860;6.208;2023-06-14T08:26:24;3.47;;;2.73;;
7525;SDS011;3804;50.860;6.208;2023-06-14T08:28:55;4.30;;;2.27;;
7525;SDS011;3804;50.860;6.208;2023-06-14T08:31:22;3.67;;;2.67;;
7525;SDS011;3804;50.860;6.208;2023-06-14T08:33:50;5.03;;;2.90;;
7525;SDS011;3804;50.860;6.208;2023-06-14T08:36:17;8.40;;;3.30;;
7525;SDS011;3804;50.860;6.208;2023-06-14T08:38:44;5.20;;;3.10;;
7525;SDS011;3804;50.860;6.208;2023-06-14T08:41:11;3.57;;;3.00;;
7525;SDS011;3804;50.860;6.208;2023-06-14T08:43:40;5.80;;;3.00;;
7525;SDS011;3804;50.860;6.208;2023-06-14T08:46:07;3.60;;;2.70;;
7525;SDS011;3804;50.860;6.208;2023-06-14T08:48:37;3.70;;;2.83;;
7525;SDS011;3804;50.860;6.208;2023-06-14T08:51:05;3.58;;;2.78;;
7525;SDS011;3804;50.860;6.208;2023-06-14T08:53:33;4.07;;;2.63;;
7525;SDS011;3804;50.860;6.208;2023-06-14T08:56:04;4.07;;;2.33;;
7525;SDS011;3804;50.860;6.208;2023-06-14T08:58:32;3.65;;;2.53;;
7525;SDS011;3804;50.860;6.208;2023-06-14T09:01:03;8.02;;;3.53;;
7525;SDS011;3804;50.860;6.208;2023-06-14T09:03:32;5.07;;;2.92;;
7525;SDS011;3804;50.860;6.208;2023-06-14T09:06:00;3.08;;;2.20;;
7525;SDS011;3804;50.860;6.208;2023-06-14T09:08:27;3.35;;;2.38;;
7525;SDS011;3804;50.860;6.208;2023-06-14T09:10:58;4.82;;;2.28;;
7525;SDS011;3804;50.860;6.208;2023-06-14T09:13:26;3.70;;;2.38;;
7525;SDS011;3804;50.860;6.208;2023-06-14T09:15:57;4.30;;;2.53;;
7525;SDS011;3804;50.860;6.208;2023-06-14T09:18:33;6.25;;;2.47;;
7525;SDS011;3804;50.860;6.208;2023-06-14T09:21:00;4.18;;;2.55;;
7525;SDS011;3804;50.860;6.208;2023-06-14T09:23:27;4.70;;;2.53;;
7525;SDS011;3804;50.860;6.208;2023-06-14T09:25:55;2.30;;;2.10;;
7525;SDS011;3804;50.860;6.208;2023-06-14T09:28:26;6.13;;;2.60;;
7525;SDS011;3804;50.860;6.208;2023-06-14T09:30:53;3.92;;;2.55;;
7525;SDS011;3804;50.860;6.208;2023-06-14T09:33:21;4.75;;;2.45;;
7525;SDS011;3804;50.860;6.208;2023-06-14T09:35:51;3.95;;;2.20;;
7525;SDS011;3804;50.860;6.208;2023-06-14T09:38:19;2.95;;;2.10;;
7525;SDS011;3804;50.860;6.208;2023-06-14T09:40:46;4.78;;;2.42;;
7525;SDS011;3804;50.860;6.208;2023-06-14T09:43:13;5.00;;;1.90;;
7525;SDS011;3804;50.860;6.208;2023-06-14T09:45:40;3.25;;;1.98;;
7525;SDS011;3804;50.860;6.208;2023-06-14T09:48:07;5.05;;;2.22;;
7525;SDS011;3804;50.860;6.208;2023-06-14T09:50:35;4.78;;;2.00;;
7525;SDS011;3804;50.860;6.208;2023-06-14T09:53:06;3.15;;;1.77;;
7525;SDS011;3804;50.860;6.208;2023-06-14T09:55:37;4.18;;;2.00;;
7525;SDS011;3804;50.860;6.208;2023-06-14T09:58:05;2.92;;;2.00;;
7525;SDS011;3804;50.860;6.208;2023-06-14T10:00:34;4.80;;;2.03;;
7525;SDS011;3804;50.860;6.208;2023-06-14T10:03:24;4.57;;;2.33;;
7525;SDS011;3804;50.860;6.208;2023-06-14T10:05:48;4.93;;;2.28;;
7525;SDS011;3804;50.860;6.208;2023-06-14T10:08:18;2.92;;;1.85;;
7525;SDS011;3804;50.860;6.208;2023-06-14T10:10:45;2.80;;;2.50;;
7525;SDS011;3804;50.860;6.208;2023-06-14T10:13:12;6.10;;;1.80;;
7525;SDS011;3804;50.860;6.208;2023-06-14T10:15:45;3.05;;;2.40;;
7525;SDS011;3804;50.860;6.208;2023-06-14T10:18:28;4.55;;;2.03;;
7525;SDS011;3804;50.860;6.208;2023-06-14T10:21:03;2.80;;;1.83;;
7525;SDS011;3804;50.860;6.208;2023-06-14T10:23:35;1.90;;;1.80;;
7525;SDS011;3804;50.860;6.208;2023-06-14T10:26:03;2.25;;;1.55;;
7525;SDS011;3804;50.860;6.208;2023-06-14T10:28:31;2.25;;;1.50;;
7525;SDS011;3804;50.860;6.208;2023-06-14T10:31:08;3.28;;;1.60;;
7525;SDS011;3804;50.860;6.208;2023-06-14T10:33:37;1.95;;;1.42;;
7525;SDS011;3804;50.860;6.208;2023-06-14T10:36:09;1.85;;;1.55;;
7525;SDS011;3804;50.860;6.208;2023-06-14T10:38:36;2.60;;;1.45;;
7525;SDS011;3804;50.860;6.208;2023-06-14T10:41:04;1.92;;;1.50;;
7525;SDS011;3804;50.860;6.208;2023-06-14T10:43:32;1.65;;;1.55;;
7525;SDS011;3804;50.860;6.208;2023-06-14T10:46:14;5.20;;;1.77;;
7525;SDS011;3804;50.860;6.208;2023-06-14T10:48:43;2.20;;;1.58;;
7525;SDS011;3804;50.860;6.208;2023-06-14T10:51:19;3.15;;;1.60;;
7525;SDS011;3804;50.860;6.208;2023-06-14T10:53:48;3.50;;;1.65;;
7525;SDS011;3804;50.860;6.208;2023-06-14T10:56:28;3.75;;;1.83;;
7525;SDS011;3804;50.860;6.208;2023-06-14T10:58:56;3.85;;;1.88;;
7525;SDS011;3804;50.860;6.208;2023-06-14T11:01:35;2.97;;;1.77;;
7525;SDS011;3804;50.860;6.208;2023-06-14T11:04:09;3.70;;;1.70;;
7525;SDS011;3804;50.860;6.208;2023-06-14T11:06:47;2.47;;;1.65;;
7525;SDS011;3804;50.860;6.208;2023-06-14T11:11:50;6.80;;;1.92;;
7525;SDS011;3804;50.860;6.208;2023-06-14T11:14:18;1.97;;;1.43;;
7525;SDS011;3804;50.860;6.208;2023-06-14T11:16:48;4.47;;;1.90;;
7525;SDS011;3804;50.860;6.208;2023-06-14T11:19:15;1.93;;;1.73;;
7525;SDS011;3804;50.860;6.208;2023-06-14T11:21:46;3.63;;;2.00;;
7525;SDS011;3804;50.860;6.208;2023-06-14T11:24:13;3.43;;;1.60;;
7525;SDS011;3804;50.860;6.208;2023-06-14T11:26:40;4.27;;;2.00;;
7525;SDS011;3804;50.860;6.208;2023-06-14T11:29:08;1.80;;;1.55;;
7525;SDS011;3804;50.860;6.208;2023-06-14T11:31:34;1.67;;;1.47;;
7525;SDS011;3804;50.860;6.208;2023-06-14T11:34:01;2.80;;;1.77;;
7525;SDS011;3804;50.860;6.208;2023-06-14T11:36:29;2.83;;;1.70;;
7525;SDS011;3804;50.860;6.208;2023-06-14T11:39:01;4.60;;;1.90;;
7525;SDS011;3804;50.860;6.208;2023-06-14T11:41:36;4.60;;;1.93;;
7525;SDS011;3804;50.860;6.208;2023-06-14T11:44:03;1.97;;;1.67;;
7525;SDS011;3804;50.860;6.208;2023-06-14T11:46:30;6.65;;;1.48;;
7525;SDS011;3804;50.860;6.208;2023-06-14T11:48:57;2.57;;;1.43;;
7525;SDS011;3804;50.860;6.208;2023-06-14T11:51:24;2.83;;;1.33;;
7525;SDS011;3804;50.860;6.208;2023-06-14T11:53:51;2.90;;;1.70;;
7525;SDS011;3804;50.860;6.208;2023-06-14T11:56:18;5.90;;;1.80;;
7525;SDS011;3804;50.860;6.208;2023-06-14T11:58:46;4.43;;;1.67;;
7525;SDS011;3804;50.860;6.208;2023-06-14T12:01:18;3.13;;;1.60;;
7525;SDS011;3804;50.860;6.208;2023-06-14T12:03:49;4.27;;;1.70;;
7525;SDS011;3804;50.860;6.208;2023-06-14T12:06:16;3.53;;;1.50;;
7525;SDS011;3804;50.860;6.208;2023-06-14T12:08:51;2.83;;;1.40;;
7525;SDS011;3804;50.860;6.208;2023-06-14T12:11:21;4.90;;;1.70;;
7525;SDS011;3804;50.860;6.208;2023-06-14T12:13:48;4.50;;;1.80;;
7525;SDS011;3804;50.860;6.208;2023-06-14T12:16:15;4.17;;;1.90;;
7525;SDS011;3804;50.860;6.208;2023-06-14T12:18:42;7.73;;;1.80;;
7525;SDS011;3804;50.860;6.208;2023-06-14T12:21:10;5.80;;;1.60;;
7525;SDS011;3804;50.860;6.208;2023-06-14T12:23:44;1.33;;;1.23;;
7525;SDS011;3804;50.860;6.208;2023-06-14T12:26:12;1.97;;;1.70;;
7525;SDS011;3804;50.860;6.208;2023-06-14T12:28:40;3.17;;;1.60;;
7525;SDS011;3804;50.860;6.208;2023-06-14T12:31:07;3.57;;;1.50;;
7525;SDS011;3804;50.860;6.208;2023-06-14T12:33:34;3.50;;;1.53;;
7525;SDS011;3804;50.860;6.208;2023-06-14T12:36:03;4.90;;;1.90;;
7525;SDS011;3804;50.860;6.208;2023-06-14T12:38:29;3.83;;;1.60;;
7525;SDS011;3804;50.860;6.208;2023-06-14T12:40:56;3.57;;;1.67;;
7525;SDS011;3804;50.860;6.208;2023-06-14T12:43:24;8.07;;;1.23;;
7525;SDS011;3804;50.860;6.208;2023-06-14T12:45:51;4.13;;;1.60;;
7525;SDS011;3804;50.860;6.208;2023-06-14T12:48:19;1.73;;;1.50;;
7525;SDS011;3804;50.860;6.208;2023-06-14T12:50:46;2.67;;;2.23;;
7525;SDS011;3804;50.860;6.208;2023-06-14T12:53:13;5.13;;;1.70;;
7525;SDS011;3804;50.860;6.208;2023-06-14T12:55:40;2.60;;;1.73;;
7525;SDS011;3804;50.860;6.208;2023-06-14T12:58:07;2.27;;;1.63;;
7525;SDS011;3804;50.860;6.208;2023-06-14T13:00:34;4.13;;;1.80;;
7525;SDS011;3804;50.860;6.208;2023-06-14T13:03:01;3.83;;;1.70;;
7525;SDS011;3804;50.860;6.208;2023-06-14T13:05:28;3.53;;;2.20;;
7525;SDS011;3804;50.860;6.208;2023-06-14T13:07:56;2.80;;;1.63;;
7525;SDS011;3804;50.860;6.208;2023-06-14T13:10:22;2.20;;;1.40;;
7525;SDS011;3804;50.860;6.208;2023-06-14T13:12:49;4.47;;;1.90;;
7525;SDS011;3804;50.860;6.208;2023-06-14T13:15:17;4.20;;;1.50;;
7525;SDS011;3804;50.860;6.208;2023-06-14T13:17:44;2.13;;;1.80;;
7525;SDS011;3804;50.860;6.208;2023-06-14T13:20:15;1.60;;;1.50;;
7525;SDS011;3804;50.860;6.208;2023-06-14T13:22:46;2.20;;;1.63;;
7525;SDS011;3804;50.860;6.208;2023-06-14T13:25:13;3.43;;;1.93;;
7525;SDS011;3804;50.860;6.208;2023-06-14T13:27:40;9.90;;;2.10;;
7525;SDS011;3804;50.860;6.208;2023-06-14T13:30:07;2.70;;;1.90;;
7525;SDS011;3804;50.860;6.208;2023-06-14T13:32:36;4.22;;;2.10;;
7525;SDS011;3804;50.860;6.208;2023-06-14T13:35:03;2.30;;;1.65;;
7525;SDS011;3804;50.860;6.208;2023-06-14T13:37:30;3.42;;;1.77;;
7525;SDS011;3804;50.860;6.208;2023-06-14T13:39:57;2.20;;;2.00;;
7525;SDS011;3804;50.860;6.208;2023-06-14T13:42:24;3.67;;;2.05;;
7525;SDS011;3804;50.860;6.208;2023-06-14T13:44:51;5.20;;;2.05;;
7525;SDS011;3804;50.860;6.208;2023-06-14T13:47:19;4.45;;;1.90;;
7525;SDS011;3804;50.860;6.208;2023-06-14T13:49:46;1.67;;;1.58;;
7525;SDS011;3804;50.860;6.208;2023-06-14T13:52:13;2.43;;;1.77;;
7525;SDS011;3804;50.860;6.208;2023-06-14T13:54:40;3.78;;;2.13;;
7525;SDS011;3804;50.860;6.208;2023-06-14T13:57:08;6.32;;;2.22;;
7525;SDS011;3804;50.860;6.208;2023-06-14T13:59:35;3.33;;;1.90;;
7525;SDS011;3804;50.860;6.208;2023-06-14T14:02:02;4.55;;;2.10;;
7525;SDS011;3804;50.860;6.208;2023-06-14T14:04:31;4.28;;;1.60;;
7525;SDS011;3804;50.860;6.208;2023-06-14T14:06:58;2.58;;;1.80;;
7525;SDS011;3804;50.860;6.208;2023-06-14T14:09:24;3.75;;;2.10;;
7525;SDS011;3804;50.860;6.208;2023-06-14T14:11:51;3.17;;;1.90;;
7525;SDS011;3804;50.860;6.208;2023-06-14T14:14:18;2.90;;;1.90;;
7525;SDS011;3804;50.860;6.208;2023-06-14T14:16:45;2.80;;;2.20;;
7525;SDS011;3804;50.860;6.208;2023-06-14T14:19:11;5.10;;;1.90;;
7525;SDS011;3804;50.860;6.208;2023-06-14T14:21:39;5.00;;;2.10;;
7525;SDS011;3804;50.860;6.208;2023-06-14T14:24:06;5.95;;;2.10;;
7525;SDS011;3804;50.860;6.208;2023-06-14T14:26:33;2.67;;;1.80;;
7525;SDS011;3804;50.860;6.208;2023-06-14T14:29:00;2.10;;;1.90;;
7525;SDS011;3804;50.860;6.208;2023-06-14T14:31:27;2.10;;;1.90;;
7525;SDS011;3804;50.860;6.208;2023-06-14T14:33:54;5.20;;;2.10;;
7525;SDS011;3804;50.860;6.208;2023-06-14T14:36:20;3.17;;;1.67;;
7525;SDS011;3804;50.860;6.208;2023-06-14T14:38:47;2.13;;;1.93;;
7525;SDS011;3804;50.860;6.208;2023-06-14T14:41:14;2.63;;;1.60;;
7525;SDS011;3804;50.860;6.208;2023-06-14T14:43:41;2.07;;;1.73;;
7525;SDS011;3804;50.860;6.208;2023-06-14T14:46:09;2.77;;;1.93;;
7525;SDS011;3804;50.860;6.208;2023-06-14T14:48:36;2.30;;;1.63;;
7525;SDS011;3804;50.860;6.208;2023-06-14T14:51:03;2.10;;;1.57;;
7525;SDS011;3804;50.860;6.208;2023-06-14T14:53:30;2.13;;;1.70;;
7525;SDS011;3804;50.860;6.208;2023-06-14T14:55:56;2.30;;;1.80;;
7525;SDS011;3804;50.860;6.208;2023-06-14T14:58:23;2.03;;;1.83;;
7525;SDS011;3804;50.860;6.208;2023-06-14T15:00:50;4.23;;;1.47;;
7525;SDS011;3804;50.860;6.208;2023-06-14T15:03:17;3.03;;;1.77;;
7525;SDS011;3804;50.860;6.208;2023-06-14T15:05:44;1.93;;;1.57;;
7525;SDS011;3804;50.860;6.208;2023-06-14T15:08:11;3.40;;;1.70;;
7525;SDS011;3804;50.860;6.208;2023-06-14T15:10:38;1.90;;;1.53;;
7525;SDS011;3804;50.860;6.208;2023-06-14T15:13:09;2.80;;;1.67;;
7525;SDS011;3804;50.860;6.208;2023-06-14T15:15:37;3.13;;;1.60;;
7525;SDS011;3804;50.860;6.208;2023-06-14T15:18:03;4.43;;;1.57;;
7525;SDS011;3804;50.860;6.208;2023-06-14T15:20:30;3.00;;;1.83;;
7525;SDS011;3804;50.860;6.208;2023-06-14T15:22:58;2.53;;;1.63;;
7525;SDS011;3804;50.860;6.208;2023-06-14T15:25:28;4.43;;;1.50;;